Time;durP1;ratioP1;P1;durP2;ratioP2;P2;SDS_P1;SDS_P2;PMS_P1;PMS_P2;Temp;Humidity;BMP_temperature;BMP_pressure;BME280_temperature;BME280_humidity;BME280_pressure;Samples;Min_cycle;Max_cycle;Signal;HPM_P1;HPM_P2
2023/01/05 00:02:05;;;;;;;4.32;0.80;;;;;;;12.69;79.40;100451.56;10373415;28;20054;-63
2023/01/05 00:07:07;;;;;;;2.15;0.90;;;;;;;12.67;79.59;100442.84;10390521;28;20046;-64
2023/01/05 00:22:52;;;;;;;4.25;1.95;;;;;;;12.64;79.97;100447.78;10391860;28;20072;-67
2023/01/05 00:27:55;;;;;;;1.70;1.25;;;;;;;12.65;79.67;100430.56;10386056;28;20046;-64
2023/01/05 00:32:56;;;;;;;2.20;1.17;;;;;;;12.64;80.01;100420.81;10354704;28;20158;-65
2023/01/05 00:37:58;;;;;;;4.07;2.55;;;;;;;12.54;80.16;100414.84;10365181;28;20058;-65
2023/01/05 00:43:00;;;;;;;2.60;1.80;;;;;;;12.49;80.11;100404.63;10382519;28;20042;-63
2023/01/05 00:48:02;;;;;;;2.05;1.58;;;;;;;12.42;80.62;100399.16;10376582;28;20048;-65
2023/01/05 00:53:03;;;;;;;3.05;1.88;;;;;;;12.44;80.61;100385.47;10367988;28;20101;-63
2023/01/05 00:58:05;;;;;;;3.65;2.03;;;;;;;12.45;80.64;100400.66;10362922;28;20079;-67
2023/01/05 01:03:07;;;;;;;2.90;2.03;;;;;;;12.47;80.22;100396.72;10365777;28;20505;-67
2023/01/05 01:08:09;;;;;;;5.15;2.47;;;;;;;12.50;80.60;100403.63;10374388;28;20106;-62
2023/01/05 01:13:10;;;;;;;3.92;1.80;;;;;;;12.49;80.02;100410.03;10384000;28;20066;-65
2023/01/05 01:18:12;;;;;;;2.63;2.10;;;;;;;12.48;80.28;100419.16;10381539;28;20284;-62
2023/01/05 01:23:13;;;;;;;3.65;1.92;;;;;;;12.43;80.76;100427.78;10383513;28;20084;-68
2023/01/05 01:28:15;;;;;;;3.30;2.30;;;;;;;12.49;80.27;100428.91;10348162;28;20157;-64
2023/01/05 01:33:16;;;;;;;4.93;2.03;;;;;;;12.47;80.30;100441.75;10373809;28;20065;-65
2023/01/05 01:38:17;;;;;;;3.53;2.13;;;;;;;12.47;80.53;100423.69;10368050;28;20054;-62
2023/01/05 01:43:38;;;;;;;5.65;2.35;;;;;;;12.46;80.60;100431.97;10382922;28;20053;-63
2023/01/05 01:48:44;;;;;;;4.03;2.45;;;;;;;12.52;80.56;100438.47;10383696;28;20077;-63
2023/01/05 01:53:50;;;;;;;4.38;2.40;;;;;;;12.57;80.36;100444.16;10382434;28;20108;-65
2023/01/05 01:58:52;;;;;;;3.25;1.77;;;;;;;12.59;80.66;100440.25;10380052;28;20046;-63
2023/01/05 02:03:54;;;;;;;3.83;1.67;;;;;;;12.64;80.32;100443.22;10350809;28;20641;-67
2023/01/05 02:08:56;;;;;;;2.90;1.45;;;;;;;12.75;80.34;100436.50;10342025;28;20075;-67
2023/01/05 02:14:09;;;;;;;2.42;0.90;;;;;;;12.75;80.28;100444.59;10345220;28;20070;-68
2023/01/05 02:19:49;;;;;;;4.00;1.50;;;;;;;12.73;80.44;100445.81;10344233;28;20145;-68
2023/01/05 02:25:23;;;;;;;2.55;1.02;;;;;;;12.82;79.94;100433.91;10336243;28;20093;-68
2023/01/05 02:31:10;;;;;;;1.02;0.77;;;;;;;12.87;79.92;100432.31;10343328;28;20089;-68
2023/01/05 02:36:22;;;;;;;1.17;0.32;;;;;;;12.95;79.74;100441.31;10341489;28;20058;-68
2023/01/05 02:41:31;;;;;;;;;;;;;;;12.93;80.00;100443.38;10340348;28;20137;-67
2023/01/05 02:46:33;;;;;;;6.57;0.40;;;;;;;12.91;79.64;100438.16;10342339;28;19948;-67
2023/01/05 02:51:38;;;;;;;8.93;0.50;;;;;;;12.84;78.85;100451.56;10328262;28;20061;-68
2023/01/05 02:56:45;;;;;;;4.93;0.88;;;;;;;12.81;78.56;100443.84;10337971;28;20142;-68
2023/01/05 03:01:54;;;;;;;4.10;0.52;;;;;;;12.87;77.98;100461.13;10335584;28;20136;-68
2023/01/05 03:07:02;;;;;;;10.10;1.80;;;;;;;12.93;77.34;100448.75;10339547;28;20042;-68
2023/01/05 03:17:40;;;;;;;4.60;0.30;;;;;;;12.98;77.13;100482.25;10338607;28;20049;-66
2023/01/05 03:39:06;;;;;;;11.73;0.77;;;;;;;13.03;75.33;100496.03;10337212;28;20105;-66
2023/01/05 03:44:08;;;;;;;8.65;1.40;;;;;;;13.04;75.48;100491.47;10340919;28;20513;-64
2023/01/05 03:49:10;;;;;;;9.25;1.08;;;;;;;13.02;74.48;100485.41;10339163;28;20050;-67
2023/01/05 03:54:11;;;;;;;10.20;0.85;;;;;;;13.02;74.31;100494.34;10337413;28;20053;-67
2023/01/05 03:59:13;;;;;;;10.25;1.05;;;;;;;13.05;73.63;100503.91;10337391;28;20046;-67
2023/01/05 04:04:14;;;;;;;8.75;0.45;;;;;;;13.05;73.05;100495.81;10343245;28;20137;-67
2023/01/05 04:09:16;;;;;;;6.28;1.38;;;;;;;13.07;73.02;100504.56;10345879;28;20046;-68
2023/01/05 04:14:17;;;;;;;7.38;0.82;;;;;;;13.12;72.50;100509.41;10317582;28;20062;-68
2023/01/05 04:19:19;;;;;;;8.80;0.60;;;;;;;13.09;72.53;100513.31;10345890;28;20136;-67
2023/01/05 04:24:20;;;;;;;6.90;0.50;;;;;;;13.10;72.09;100523.09;10342732;28;20070;-68
2023/01/05 04:29:21;;;;;;;11.77;1.08;;;;;;;13.08;72.26;100511.66;10348813;28;20084;-68
2023/01/05 04:34:23;;;;;;;12.32;1.30;;;;;;;13.10;72.46;100513.13;10348643;28;20055;-66
2023/01/05 04:39:24;;;;;;;10.90;0.82;;;;;;;13.10;72.39;100515.81;10343188;28;20094;-67
2023/01/05 04:44:25;;;;;;;11.25;0.63;;;;;;;13.06;72.54;100519.91;10346967;28;20081;-66
2023/01/05 04:49:27;;;;;;;7.05;1.02;;;;;;;13.00;72.74;100520.69;10343481;28;20054;-68
2023/01/05 04:54:28;;;;;;;8.80;0.50;;;;;;;12.99;72.49;100534.34;10347780;28;20583;-68
2023/01/05 04:59:30;;;;;;;8.10;1.60;;;;;;;12.99;72.11;100543.28;10344189;28;20050;-69
2023/01/05 05:04:31;;;;;;;10.85;1.02;;;;;;;13.00;72.30;100558.47;10345985;28;20046;-69
2023/01/05 05:09:33;;;;;;;9.10;1.13;;;;;;;12.92;72.48;100555.03;10346826;28;20135;-68
2023/01/05 05:14:34;;;;;;;7.28;0.73;;;;;;;12.82;72.60;100572.31;10344371;28;20050;-68
2023/01/05 05:19:36;;;;;;;9.57;0.70;;;;;;;12.85;72.50;100566.53;10343246;28;20081;-68
2023/01/05 05:24:37;;;;;;;10.18;1.30;;;;;;;12.89;72.51;100562.47;10327257;28;20144;-67
2023/01/05 05:29:38;;;;;;;9.85;0.93;;;;;;;12.88;72.10;100565.34;10344503;28;20590;-68
2023/01/05 05:34:40;;;;;;;9.60;1.23;;;;;;;12.84;72.57;100559.47;10344730;28;20073;-68
2023/01/05 05:39:41;;;;;;;8.82;0.85;;;;;;;12.83;72.26;100568.59;10335454;28;20137;-68
2023/01/05 05:44:42;;;;;;;9.05;1.30;;;;;;;12.84;72.35;100564.88;10340533;28;20050;-68
2023/01/05 05:49:44;;;;;;;11.15;1.85;;;;;;;12.79;72.60;100574.53;10339481;28;20310;-67
2023/01/05 05:54:45;;;;;;;12.20;0.93;;;;;;;12.80;72.10;100568.97;10349053;28;20046;-68
2023/01/05 05:59:47;;;;;;;10.23;1.00;;;;;;;12.86;71.96;100580.88;10341104;28;20148;-68
2023/01/05 06:04:48;;;;;;;11.45;1.50;;;;;;;12.82;72.09;100593.06;10337286;28;20505;-67
2023/01/05 06:09:49;;;;;;;9.90;0.73;;;;;;;12.85;72.14;100598.09;10346966;28;20121;-68
2023/01/05 06:14:51;;;;;;;10.23;0.93;;;;;;;12.87;71.59;100604.13;10370042;28;20053;-67
2023/01/05 06:19:52;;;;;;;6.68;1.13;;;;;;;12.84;71.96;100602.66;10373237;28;20042;-66
2023/01/05 06:24:54;;;;;;;9.45;1.15;;;;;;;12.85;71.70;100604.31;10371507;28;20044;-68
2023/01/05 06:29:55;;;;;;;7.78;0.82;;;;;;;12.83;71.09;100608.22;10348158;28;20069;-68
2023/01/05 06:34:57;;;;;;;7.65;0.60;;;;;;;12.84;71.11;100613.44;10343506;28;20591;-69
2023/01/05 06:39:58;;;;;;;9.32;0.93;;;;;;;12.81;70.79;100624.59;10345101;28;20074;-68
2023/01/05 06:45:00;;;;;;;6.78;0.93;;;;;;;12.81;70.94;100621.88;10343307;28;20141;-69
2023/01/05 06:50:01;;;;;;;10.07;0.70;;;;;;;12.85;70.39;100630.47;10350510;28;20070;-69
2023/01/05 06:55:03;;;;;;;11.10;0.70;;;;;;;12.89;70.70;100624.53;10350002;28;20045;-68
2023/01/05 07:00:08;;;;;;;9.80;0.80;;;;;;;12.87;70.30;100634.66;10347448;28;20136;-68
2023/01/05 07:05:09;;;;;;;13.57;1.23;;;;;;;12.86;70.67;100627.59;10342686;28;20054;-69
2023/01/05 07:10:11;;;;;;;6.95;1.35;;;;;;;12.84;70.58;100645.81;10326818;28;20592;-68
2023/01/05 07:15:12;;;;;;;15.88;1.55;;;;;;;12.82;70.25;100652.44;10341882;28;20073;-69
2023/01/05 07:20:14;;;;;;;14.80;1.13;;;;;;;12.82;70.28;100647.84;10342630;28;20078;-68
2023/01/05 07:25:15;;;;;;;5.95;0.73;;;;;;;12.77;70.31;100669.13;10335008;28;20066;-74
2023/01/05 07:30:17;;;;;;;12.00;1.42;;;;;;;12.81;70.39;100670.44;10340496;28;20201;-71
2023/01/05 07:35:18;;;;;;;10.65;0.93;;;;;;;12.84;70.13;100674.66;10338899;28;20137;-71
2023/01/05 07:40:20;;;;;;;10.68;0.73;;;;;;;12.80;70.21;100676.06;10336738;28;20046;-73
2023/01/05 07:45:21;;;;;;;10.85;0.88;;;;;;;12.85;69.80;100695.22;10333334;28;20097;-72
2023/01/05 07:50:22;;;;;;;7.40;0.70;;;;;;;12.83;69.99;100699.94;10347075;28;20386;-72
2023/01/05 07:55:24;;;;;;;14.18;1.73;;;;;;;12.70;70.48;100725.69;10330982;28;20077;-71
2023/01/05 08:00:26;;;;;;;6.75;0.65;;;;;;;12.35;71.22;100727.13;10340469;28;20078;-69
2023/01/05 08:05:32;;;;;;;11.75;0.60;;;;;;;12.13;72.21;100733.31;10341606;28;20053;-72
2023/01/05 08:10:36;;;;;;;10.60;0.80;;;;;;;12.09;72.33;100728.28;10330289;28;20053;-70
2023/01/05 08:15:38;;;;;;;8.00;1.55;;;;;;;12.07;71.96;100735.69;10344004;28;20055;-69
2023/01/05 08:20:40;;;;;;;11.10;0.70;;;;;;;12.11;71.76;100738.88;10343721;28;20070;-69
2023/01/05 08:25:41;;;;;;;7.93;0.82;;;;;;;12.19;70.88;100748.78;10341697;28;20564;-70
2023/01/05 08:30:43;;;;;;;9.73;0.90;;;;;;;12.22;71.10;100740.31;10313251;28;20081;-69
2023/01/05 08:35:44;;;;;;;7.75;0.82;;;;;;;12.28;71.09;100750.41;10344494;28;20077;-68
2023/01/05 08:40:46;;;;;;;3.20;0.45;;;;;;;12.35;70.60;100762.16;10344609;28;20081;-69
2023/01/05 08:45:49;;;;;;;11.45;0.88;;;;;;;12.41;70.93;100753.34;10348026;28;20042;-69
2023/01/05 08:50:50;;;;;;;17.48;2.35;;;;;;;12.45;70.96;100765.47;10344317;28;20053;-69
2023/01/05 08:55:52;;;;;;;7.53;0.55;;;;;;;12.49;71.11;100776.75;10344535;28;20053;-69
2023/01/05 09:00:53;;;;;;;7.53;0.90;;;;;;;12.34;71.06;100782.03;10320692;28;20061;-70
2023/01/05 09:05:58;;;;;;;8.68;0.77;;;;;;;12.15;71.92;100790.59;10323422;28;20057;-71
2023/01/05 09:11:17;;;;;;;6.65;0.98;;;;;;;12.02;72.49;100793.81;10342663;28;20072;-71
2023/01/05 09:16:21;;;;;;;8.25;0.90;;;;;;;12.06;72.73;100793.28;10341306;28;20058;-71
2023/01/05 09:21:43;;;;;;;3.47;0.40;;;;;;;12.12;72.53;100794.44;10340827;28;20057;-69
2023/01/05 09:26:45;;;;;;;10.68;0.60;;;;;;;12.06;72.63;100790.59;10339229;28;20049;-69
2023/01/05 09:31:46;;;;;;;6.95;0.70;;;;;;;11.89;73.68;100803.31;10342446;28;20054;-72
2023/01/05 09:36:48;;;;;;;9.57;0.68;;;;;;;11.97;72.92;100799.75;10335193;28;20050;-70
2023/01/05 09:41:59;;;;;;;8.60;1.42;;;;;;;12.19;72.85;100800.00;10316489;28;20506;-71
2023/01/05 09:47:10;;;;;;;8.88;0.70;;;;;;;12.40;71.68;100807.44;10340262;28;20049;-72
2023/01/05 09:52:12;;;;;;;16.33;1.52;;;;;;;12.48;71.66;100815.53;10338138;28;20077;-66
2023/01/05 09:57:24;;;;;;;10.43;0.80;;;;;;;12.55;71.06;100813.78;10346145;28;20060;-66
2023/01/05 10:02:42;;;;;;;10.02;1.00;;;;;;;12.72;71.17;100814.53;10331463;28;20698;-65
2023/01/05 10:07:50;;;;;;;14.23;1.00;;;;;;;12.78;70.35;100824.59;10321512;28;20042;-67
2023/01/05 10:13:10;;;;;;;4.25;1.00;;;;;;;12.86;70.29;100818.31;10341481;28;20050;-66
2023/01/05 10:18:19;;;;;;;9.80;0.90;;;;;;;12.98;70.04;100827.66;10327784;28;20074;-67
2023/01/05 10:23:30;;;;;;;11.60;0.77;;;;;;;13.05;69.49;100827.78;10326053;28;20504;-67
2023/01/05 10:28:40;;;;;;;11.50;1.27;;;;;;;13.28;68.57;100828.59;10328334;28;20054;-67
2023/01/05 10:34:00;;;;;;;7.93;0.52;;;;;;;13.22;68.66;100837.41;10341059;28;20064;-67
2023/01/05 10:39:41;;;;;;;10.02;1.60;;;;;;;13.28;68.31;100831.28;10339533;28;20045;-66
2023/01/05 10:45:10;;;;;;;18.92;2.47;;;;;;;13.29;68.53;100843.81;10341892;28;20042;-66
2023/01/05 10:50:34;;;;;;;16.55;1.40;;;;;;;13.42;67.73;100843.19;10330226;28;20578;-65
2023/01/05 10:55:44;;;;;;;6.53;0.73;;;;;;;13.59;67.59;100841.19;10333620;28;20053;-66
2023/01/05 11:00:46;;;;;;;13.40;1.08;;;;;;;13.77;67.48;100834.59;10342690;28;20081;-66
2023/01/05 11:05:47;;;;;;;10.15;0.77;;;;;;;13.79;66.98;100827.97;10345636;28;20143;-65
2023/01/05 11:10:55;;;;;;;10.80;1.13;;;;;;;13.75;66.82;100842.06;10343137;28;20054;-65
2023/01/05 11:16:16;;;;;;;13.18;1.20;;;;;;;13.74;66.63;100852.00;10323055;28;20791;-66
2023/01/05 11:21:22;;;;;;;12.35;0.70;;;;;;;13.72;66.83;100845.09;10340604;28;20046;-66
2023/01/05 11:26:28;;;;;;;11.75;1.83;;;;;;;13.75;66.62;100842.06;10346157;28;20060;-66
2023/01/05 11:31:41;;;;;;;13.23;1.47;;;;;;;13.78;66.77;100849.78;10350189;28;20137;-67
2023/01/05 11:36:51;;;;;;;8.20;0.60;;;;;;;13.79;66.56;100852.28;10338419;28;20046;-67
2023/01/05 11:42:14;;;;;;;11.82;1.20;;;;;;;13.79;66.33;100854.16;10331309;28;20039;-66
2023/01/05 11:47:30;;;;;;;12.35;0.80;;;;;;;13.75;66.22;100851.00;10342476;28;21181;-66
2023/01/05 11:52:49;;;;;;;9.00;0.90;;;;;;;13.83;66.17;100850.06;10338646;28;20061;-66
2023/01/05 11:57:53;;;;;;;14.13;1.30;;;;;;;13.86;66.15;100857.78;10342766;28;20332;-66
2023/01/05 12:03:37;;;;;;;13.73;2.25;;;;;;;13.84;66.19;100858.00;10345005;28;20062;-66
2023/01/05 12:08:57;;;;;;;7.95;1.17;;;;;;;13.93;65.67;100855.22;10339355;28;20513;-67
2023/01/05 12:14:20;;;;;;;12.63;1.95;;;;;;;13.84;65.83;100858.00;10340577;28;20042;-66
2023/01/05 12:19:53;;;;;;;15.85;1.30;;;;;;;13.89;65.65;100852.84;10341581;28;20062;-67
2023/01/05 12:25:18;;;;;;;13.35;1.65;;;;;;;13.89;65.30;100857.44;10340449;28;20417;-66
2023/01/05 12:30:32;;;;;;;14.50;1.25;;;;;;;13.95;65.15;100861.25;10336691;28;20443;-65
2023/01/05 12:36:17;;;;;;;12.75;1.95;;;;;;;13.88;64.97;100859.31;10336282;28;20083;-66
2023/01/05 12:41:44;;;;;;;14.40;1.50;;;;;;;14.00;64.86;100858.81;10340262;28;20397;-66
2023/01/05 12:47:03;;;;;;;11.52;1.25;;;;;;;14.08;64.09;100853.34;10326044;28;20077;-65
2023/01/05 12:52:28;;;;;;;13.18;2.22;;;;;;;14.14;63.85;100854.44;10341585;28;20074;-65
2023/01/05 12:57:37;;;;;;;11.85;0.80;;;;;;;14.19;63.41;100876.38;10329515;28;20100;-67
2023/01/05 13:02:45;;;;;;;10.13;1.02;;;;;;;14.23;63.29;100881.19;10325647;28;20057;-67
2023/01/05 13:08:00;;;;;;;10.07;1.00;;;;;;;14.35;62.86;100868.03;10322929;28;20042;-67
2023/01/05 13:13:10;;;;;;;17.45;2.63;;;;;;;14.48;62.79;100867.41;10343706;28;20045;-69
2023/01/05 13:18:16;;;;;;;8.50;0.93;;;;;;;14.42;62.33;100873.56;10333248;28;20567;-66
2023/01/05 13:23:26;;;;;;;14.88;1.85;;;;;;;14.50;61.98;100884.28;10334101;28;20541;-66
2023/01/05 13:28:27;;;;;;;14.35;0.80;;;;;;;14.54;61.68;100879.34;10342074;28;20112;-67
2023/01/05 13:33:52;;;;;;;13.07;1.25;;;;;;;14.38;61.39;100883.91;10340068;28;20061;-68
2023/01/05 13:39:12;;;;;;;4.93;0.65;;;;;;;14.39;61.53;100896.38;10337602;28;20133;-69
2023/01/05 13:44:25;;;;;;;11.27;0.95;;;;;;;14.26;60.72;100897.06;10339393;28;20143;-67
2023/01/05 13:50:01;;;;;;;10.75;1.13;;;;;;;14.18;59.92;100901.72;10338577;28;20050;-66
2023/01/05 13:55:09;;;;;;;7.30;1.52;;;;;;;14.13;60.52;100902.28;10326291;28;20500;-66
2023/01/05 14:00:23;;;;;;;7.22;0.95;;;;;;;14.06;59.69;100902.19;10338917;28;20144;-65
2023/01/05 14:05:29;;;;;;;;;;;;;;;13.93;59.80;100903.84;10337044;28;20046;-68
2023/01/05 14:10:32;;;;;;;11.43;1.33;;;;;;;13.96;58.99;100903.47;10310430;28;19929;-70
2023/01/05 14:15:41;;;;;;;7.07;0.95;;;;;;;13.94;58.35;100909.09;10280588;28;1066886;-67
2023/01/05 14:20:51;;;;;;;9.18;0.80;;;;;;;13.77;57.78;100919.19;10302324;28;20056;-67
2023/01/05 14:25:59;;;;;;;7.43;0.77;;;;;;;13.73;57.44;100922.47;10334035;28;20038;-67
2023/01/05 14:31:13;;;;;;;7.22;0.93;;;;;;;13.62;57.03;100919.13;10304005;28;20103;-67
2023/01/05 14:36:56;;;;;;;5.82;0.40;;;;;;;13.59;56.81;100927.63;10340187;28;20056;-68
2023/01/05 14:42:02;;;;;;;6.53;0.85;;;;;;;13.63;56.53;100934.34;10282884;28;20046;-67
2023/01/05 14:47:04;;;;;;;10.00;0.70;;;;;;;13.63;56.87;100928.13;10363373;23;20076;-66
2023/01/05 14:52:15;;;;;;;6.78;0.57;;;;;;;13.61;56.61;100933.69;10334168;28;20148;-71
2023/01/05 14:57:25;;;;;;;6.72;0.60;;;;;;;13.59;56.67;100935.72;10341843;28;20062;-67
2023/01/05 15:02:32;;;;;;;8.10;0.80;;;;;;;13.61;56.55;100949.91;10292590;28;20093;-69
2023/01/05 15:07:47;;;;;;;8.60;1.15;;;;;;;13.69;56.63;100951.69;10293704;28;20727;-67
2023/01/05 15:12:48;;;;;;;9.38;1.15;;;;;;;13.74;56.65;100956.53;10293059;28;20465;-68
2023/01/05 15:18:18;;;;;;;8.35;1.45;;;;;;;13.83;56.75;100955.47;10286040;28;20086;-70
2023/01/05 15:23:48;;;;;;;7.05;1.10;;;;;;;13.77;57.74;100958.91;10275595;28;20113;-70
2023/01/05 15:29:27;;;;;;;8.68;0.73;;;;;;;13.67;58.40;100957.28;10288125;28;20493;-68
2023/01/05 15:34:41;;;;;;;10.73;2.25;;;;;;;13.59;60.12;100960.03;10288965;28;20054;-69
2023/01/05 15:39:44;;;;;;;15.68;2.17;;;;;;;13.48;60.62;100958.59;10291222;28;20074;-70
2023/01/05 15:44:48;;;;;;;11.07;0.90;;;;;;;13.48;61.36;100964.00;10295712;28;20064;-67
2023/01/05 15:49:55;;;;;;;12.00;1.25;;;;;;;13.40;61.89;100958.66;10295467;28;20078;-69
2023/01/05 15:54:59;;;;;;;12.23;1.43;;;;;;;13.43;62.06;100963.72;10291102;28;20141;-66
2023/01/05 16:00:01;;;;;;;13.93;1.67;;;;;;;13.40;62.22;100965.91;10274720;28;20512;-68
2023/01/05 16:05:13;;;;;;;11.85;1.10;;;;;;;13.35;62.21;100961.06;10295563;28;20051;-68
2023/01/05 16:10:17;;;;;;;13.68;1.77;;;;;;;13.38;62.64;100970.66;10290415;28;21028;-70
2023/01/05 16:15:21;;;;;;;11.98;1.45;;;;;;;13.42;62.20;100972.81;10301008;28;20086;-72
2023/01/05 16:20:24;;;;;;;19.25;3.80;;;;;;;13.33;62.47;100968.50;10304977;28;20100;-73
2023/01/05 16:25:38;;;;;;;11.63;1.38;;;;;;;13.25;62.77;100971.19;10298744;28;20123;-72
2023/01/05 16:30:40;;;;;;;11.52;0.98;;;;;;;13.28;62.95;100979.78;10302552;28;20053;-69
2023/01/05 16:35:45;;;;;;;14.10;0.90;;;;;;;13.26;62.69;100984.53;10295745;28;20054;-70
2023/01/05 16:40:49;;;;;;;17.92;2.42;;;;;;;13.21;62.92;100977.97;10307559;28;20129;-72
2023/01/05 16:45:56;;;;;;;14.82;2.38;;;;;;;13.18;63.00;100970.25;10298286;28;20608;-68
2023/01/05 16:51:01;;;;;;;16.30;2.67;;;;;;;13.06;63.42;100970.66;10300987;28;20047;-68
2023/01/05 16:56:20;;;;;;;16.65;1.65;;;;;;;13.12;63.27;100969.09;10302964;28;20145;-73
2023/01/05 17:01:34;;;;;;;15.82;1.77;;;;;;;13.16;63.32;100965.03;10299197;28;20627;-72
2023/01/05 17:06:35;;;;;;;14.10;1.42;;;;;;;13.06;63.64;100969.81;10298941;28;20039;-70
2023/01/05 17:11:37;;;;;;;14.98;2.53;;;;;;;12.99;63.79;100985.03;10291319;28;21122;-70
2023/01/05 17:16:38;;;;;;;11.35;2.13;;;;;;;12.91;64.08;100972.41;10300557;28;20125;-69
2023/01/05 17:21:55;;;;;;;15.68;2.13;;;;;;;12.89;63.75;100969.03;10297123;28;20059;-70
2023/01/05 17:26:56;;;;;;;12.00;2.00;;;;;;;12.79;64.03;100979.22;10295164;28;20066;-70
2023/01/05 17:31:58;;;;;;;12.68;1.55;;;;;;;12.67;64.77;100984.16;10293110;28;20498;-69
2023/01/05 17:37:00;;;;;;;13.70;1.38;;;;;;;12.65;64.62;100991.56;10297358;28;20046;-69
2023/01/05 17:47:24;;;;;;;17.30;2.00;;;;;;;12.76;64.40;100977.72;10293279;28;20062;-71
2023/01/05 17:52:25;;;;;;;12.80;2.40;;;;;;;12.79;64.77;100979.22;10296385;28;20576;-72
2023/01/05 17:57:26;;;;;;;12.35;2.03;;;;;;;12.78;64.88;100981.06;10294696;28;20429;-71
2023/01/05 18:02:28;;;;;;;16.02;1.63;;;;;;;12.77;64.92;100983.94;10296157;28;20137;-70
2023/01/05 18:07:30;;;;;;;19.17;2.50;;;;;;;12.85;64.74;100976.63;10297353;28;20038;-71
2023/01/05 18:12:32;;;;;;;11.00;2.72;;;;;;;12.92;64.29;100975.97;10294554;28;20061;-71
2023/01/05 18:17:33;;;;;;;16.20;3.20;;;;;;;12.84;64.70;100982.25;10291984;28;20062;-69
2023/01/05 18:22:40;;;;;;;23.27;4.00;;;;;;;12.80;64.53;100973.66;10296312;28;20133;-70
2023/01/05 18:27:41;;;;;;;27.38;5.63;;;;;;;12.74;65.22;100968.97;10296468;28;20097;-72
2023/01/05 18:32:43;;;;;;;15.80;4.53;;;;;;;12.66;65.25;100961.72;10302684;28;20610;-72
2023/01/05 18:37:44;;;;;;;16.02;2.72;;;;;;;12.50;65.21;100959.94;10300587;28;20122;-70
2023/01/05 18:42:46;;;;;;;16.33;2.83;;;;;;;12.37;66.21;100956.09;10298526;28;20302;-72
2023/01/05 18:47:47;;;;;;;20.45;2.63;;;;;;;12.32;66.45;100964.69;10294048;28;20465;-70
2023/01/05 18:52:48;;;;;;;16.45;3.88;;;;;;;12.38;66.20;100964.03;10294855;28;21457;-68
2023/01/05 18:57:50;;;;;;;18.27;2.97;;;;;;;12.39;66.21;100964.84;10276527;28;20038;-71
2023/01/05 19:02:51;;;;;;;14.10;3.30;;;;;;;12.44;65.93;100963.34;10295366;28;20054;-71
2023/01/05 19:07:53;;;;;;;14.45;2.25;;;;;;;12.44;65.87;100959.75;10291910;28;20054;-71
2023/01/05 19:12:54;;;;;;;18.50;1.88;;;;;;;12.44;65.97;100957.06;10294498;28;20116;-70
2023/01/05 19:17:56;;;;;;;14.45;2.30;;;;;;;12.42;65.92;100953.72;10292834;28;20327;-71
2023/01/05 19:23:00;;;;;;;12.90;2.25;;;;;;;12.43;65.89;100958.94;10293071;28;20050;-70
2023/01/05 19:28:01;;;;;;;19.02;2.40;;;;;;;12.34;66.38;100949.19;10292338;28;20066;-71
2023/01/05 19:33:03;;;;;;;19.90;1.80;;;;;;;12.30;66.69;100950.53;10294462;28;20288;-71
2023/01/05 19:38:04;;;;;;;15.82;2.90;;;;;;;12.21;66.87;100949.72;10294413;28;20058;-70
2023/01/05 19:43:06;;;;;;;16.20;3.70;;;;;;;12.17;67.25;100952.94;10297489;28;20145;-68
2023/01/05 19:48:07;;;;;;;18.02;2.92;;;;;;;12.14;67.18;100954.13;10301984;28;20050;-70
2023/01/05 19:53:09;;;;;;;14.05;2.50;;;;;;;12.09;67.84;100951.94;10300686;28;20584;-67
2023/01/05 19:58:11;;;;;;;17.95;2.83;;;;;;;12.06;67.70;100956.81;10298331;28;20569;-71
2023/01/05 20:03:13;;;;;;;21.60;2.97;;;;;;;12.01;68.36;100943.88;10314452;28;20047;-70
2023/01/05 20:08:14;;;;;;;17.92;2.38;;;;;;;11.96;68.73;100937.31;10301571;28;20076;-71
2023/01/05 20:13:16;;;;;;;14.50;1.48;;;;;;;11.97;68.88;100941.72;10283099;28;20050;-70
2023/01/05 20:18:17;;;;;;;21.65;2.88;;;;;;;12.01;69.05;100941.19;10302777;28;20046;-71
2023/01/05 20:23:18;;;;;;;11.30;1.83;;;;;;;12.10;69.31;100953.63;10302287;28;20047;-70
2023/01/05 20:28:20;;;;;;;19.67;3.17;;;;;;;12.16;69.73;100935.91;10303913;28;20043;-70
2023/01/05 20:33:21;;;;;;;13.38;2.03;;;;;;;12.20;69.47;100949.91;10302803;28;20058;-71
2023/01/05 20:38:23;;;;;;;12.70;2.90;;;;;;;12.24;69.59;100932.38;10290556;28;20766;-71
2023/01/05 20:43:25;;;;;;;15.20;2.80;;;;;;;12.22;69.52;100932.56;10297752;28;20093;-70
2023/01/05 20:48:27;;;;;;;15.77;2.55;;;;;;;12.15;70.08;100936.94;10297530;28;20070;-71
2023/01/05 20:53:28;;;;;;;17.50;2.38;;;;;;;12.19;70.47;100948.22;10297918;28;20670;-70
2023/01/05 20:58:30;;;;;;;22.75;3.78;;;;;;;12.21;69.87;100938.13;10267307;28;20086;-72
2023/01/05 21:03:32;;;;;;;19.23;2.17;;;;;;;12.23;70.31;100946.88;10299924;28;20046;-71
2023/01/05 21:08:35;;;;;;;12.00;2.60;;;;;;;12.30;70.02;100937.06;10300347;28;20082;-71
2023/01/05 21:13:36;;;;;;;10.07;2.08;;;;;;;12.34;70.26;100937.56;10299191;28;20116;-70
2023/01/05 21:18:37;;;;;;;11.40;1.70;;;;;;;12.39;70.47;100944.13;10306289;28;21451;-72
2023/01/05 21:23:39;;;;;;;12.60;2.10;;;;;;;12.44;70.19;100947.16;10310010;28;20137;-67
2023/01/05 21:28:41;;;;;;;10.20;1.20;;;;;;;12.47;70.26;100945.97;10319745;28;20042;-69
2023/01/05 21:33:43;;;;;;;10.90;1.73;;;;;;;12.50;69.97;100945.63;10319094;28;20441;-70
2023/01/05 21:38:49;;;;;;;16.88;2.88;;;;;;;12.48;69.95;100947.66;10303242;28;20049;-69
2023/01/05 21:44:03;;;;;;;11.68;3.50;;;;;;;12.50;69.86;100940.22;10315479;28;20047;-70
2023/01/05 21:49:06;;;;;;;14.35;2.70;;;;;;;12.53;69.95;100941.72;10314314;28;20081;-69
2023/01/05 21:59:29;;;;;;;14.25;2.90;;;;;;;12.49;70.57;100922.34;10317517;28;20046;-70
2023/01/05 22:04:30;;;;;;;15.38;2.15;;;;;;;12.47;70.64;100919.81;10312602;28;20054;-72
2023/01/05 22:10:27;;;;;;;15.25;2.03;;;;;;;12.51;70.71;100912.22;10284080;28;20051;-69
2023/01/05 22:15:28;;;;;;;11.30;2.30;;;;;;;12.52;70.21;100905.84;10303823;28;20051;-71
2023/01/05 22:20:29;;;;;;;12.07;1.77;;;;;;;12.55;70.65;100910.03;10309020;28;20133;-69
2023/01/05 22:25:31;;;;;;;13.05;2.80;;;;;;;12.53;70.54;100907.50;10307694;28;20047;-68
2023/01/05 22:30:33;;;;;;;19.83;2.08;;;;;;;12.51;70.64;100901.44;10295076;28;20050;-69
2023/01/05 22:35:38;;;;;;;12.50;1.63;;;;;;;12.40;71.38;100901.81;10308825;28;20043;-69
2023/01/05 22:40:39;;;;;;;14.75;2.15;;;;;;;12.25;71.59;100909.81;10314288;28;20136;-66
2023/01/05 22:45:41;;;;;;;14.18;2.85;;;;;;;12.19;71.92;100905.09;10318541;28;20050;-69
2023/01/05 22:50:43;;;;;;;14.48;1.50;;;;;;;12.13;72.02;100903.94;10310256;28;20089;-67
2023/01/05 22:55:45;;;;;;;15.25;3.25;;;;;;;12.12;72.31;100904.94;10294633;28;20039;-67
2023/01/05 23:00:46;;;;;;;13.40;2.40;;;;;;;12.11;72.50;100900.56;10305223;28;20046;-67
2023/01/05 23:05:47;;;;;;;14.13;2.53;;;;;;;12.07;72.66;100901.94;10298759;28;20084;-68
2023/01/05 23:10:49;;;;;;;11.30;2.15;;;;;;;12.08;72.91;100899.06;10294881;28;20116;-68
2023/01/05 23:15:54;;;;;;;19.10;3.45;;;;;;;12.12;72.65;100890.63;10303127;28;20062;-68
2023/01/05 23:20:58;;;;;;;12.23;2.05;;;;;;;12.21;72.82;100886.91;10303124;28;20416;-67
2023/01/05 23:26:00;;;;;;;8.90;2.50;;;;;;;12.22;73.09;100886.75;10288533;28;20378;-68
2023/01/05 23:31:01;;;;;;;14.90;2.80;;;;;;;12.23;73.15;100872.22;10299837;28;20594;-68
2023/01/05 23:36:04;;;;;;;16.50;3.92;;;;;;;12.24;72.84;100867.66;10319809;28;20161;-67
2023/01/05 23:41:07;;;;;;;11.80;3.22;;;;;;;12.24;73.23;100859.59;10304509;28;20078;-67
2023/01/05 23:46:18;;;;;;;11.55;2.75;;;;;;;12.22;73.08;100850.84;10318794;28;20058;-67
2023/01/05 23:51:20;;;;;;;10.95;3.05;;;;;;;12.28;73.05;100845.59;10308870;28;20981;-68
2023/01/05 23:56:27;;;;;;;11.18;2.75;;;;;;;12.31;73.38;100852.50;10313135;28;20122;-66
